Station APXF1 - East Bay, Apalachicola Reserve, FL Image indicating link to RSS feed of recent meteorological observations for station APXF1


Conditions at APXF1 as of
(2:00 am EDT)
0600 GMT on 05/10/2026:
     

Click on the graph icon in the table below to see a time series plot of the last five days of that observation.

5-day plot - Wind Direction Wind Direction (WDIR):ENE ( 60 deg true )
5-day plot - Wind Speed Wind Speed (WSPD): 4.1 kts
5-day plot - Atmospheric Pressure Atmospheric Pressure (PRES):29.94 in
5-day plot - Pressure Tendency Pressure Tendency (PTDY):-0.03 in ( Falling )
5-day plot - Air Temperature Air Temperature (ATMP): 67.8 °F
5-day plot - Dew Point Dew Point (DEWP): 67.3 °F
5-day plot -  Wind Speed, Wind Gust and Atmospheric Pressure Combined plot of Wind Speed, Gust, and Air Pressure
Previous observations
TIME
(EDT)
5-day plot - Wind Direction
WDIR
 
5-day plot - Wind Speed
WSPD
kts
5-day plot - Wind Gust
GST
kts
5-day plot - Wave Height
WVHT
ft
5-day plot - Dominant Wave Period
DPD
sec
5-day plot - Average Wave Period
APD
sec
5-day plot - Mean Wave Direction
MWD
 
5-day plot - Atmospheric Pressure
PRES
in
5-day plot - Pressure Tendency
PTDY
in
5-day plot - Air Temperature
ATMP
°F
5-day plot - Water Temperature
WTMP
°F
5-day plot - Dew Point
DEWP
°F
5-day plot - Salinity
SAL
psu
5-day plot - Visibility
VIS
nmi
5-day plot - Tide (above MLLW)
TIDE
ft
2026-05-10 01:45 am NE 5.1-----29.94- 68.0- 67.5---
2026-05-10 01:30 amNNE 7.0-----29.94- 68.0- 67.1---
2026-05-10 01:15 am NE 5.1-----29.94- 68.0- 67.1---
2026-05-10 01:00 am E 2.9-----29.94+0.00 68.0- 67.1---
2026-05-10 12:45 am NE 6.0-----29.94- 68.2- 67.3---
2026-05-10 12:30 amENE 4.1-----29.94- 68.0- 67.1---
2026-05-10 12:15 amENE 5.1-----29.94- 68.4- 67.3---
2026-05-10 12:00 amNNE 5.1-----29.97+0.03 68.5- 67.5---
2026-05-09 11:45 pm NE 7.0-----29.97- 68.7- 67.6---
2026-05-09 11:30 pmNNE 8.0-----29.97- 69.1- 68.0---
2026-05-09 11:15 pm N 8.0-----29.97- 70.3- 68.9---
2026-05-09 11:00 pm N 4.1-----29.97+0.06 71.2- 69.8---
2026-05-09 10:45 pm N 4.1-----29.97- 71.4- 70.0---
2026-05-09 10:30 pm NE 4.1-----29.97- 71.6- 70.2---
2026-05-09 10:15 pm E 4.1-----29.94- 71.2- 69.8---
2026-05-09 10:00 pm SE 4.1-----29.94+0.00 70.9- 69.4---
2026-05-09 09:45 pm SE 6.0-----29.94- 70.7- 69.3---
2026-05-09 09:30 pm SE 7.0-----29.94- 70.5- 69.4---
2026-05-09 09:15 pm SE 8.0-----29.94- 70.3- 69.3---
2026-05-09 09:00 pm SE 8.0-----29.94+0.00 70.0- 68.9---
2026-05-09 08:45 pm SE 8.0-----29.91- 69.8- 68.9---
2026-05-09 08:30 pm SE 8.9-----29.91- 69.8- 68.9---
2026-05-09 08:15 pm SE 8.9-----29.91- 69.3- 68.4---
2026-05-09 08:00 pm SE 7.0-----29.91-0.03 68.4- 67.8---
2026-05-09 07:45 pm SE 7.0-----29.91- 67.1- 66.2---
2026-05-09 07:30 pmESE 5.1-----29.94- 66.9- 66.0---
2026-05-09 07:15 pm E 4.1-----29.94- 66.9- 66.0---
2026-05-09 07:00 pm E 2.9-----29.94+0.00 66.9- 66.0---
2026-05-09 06:45 pmENE 1.9-----29.94- 66.7- 65.8---
2026-05-09 06:30 pmENE 4.1-----29.94- 66.7- 66.2---
2026-05-09 06:15 pm E 5.1-----29.94- 66.6- 66.0---
2026-05-09 06:00 pm E 5.1-----29.94+0.00 66.7- 66.2---
2026-05-09 05:45 pm E 8.0-----29.91- 66.4- 65.8---
2026-05-09 05:30 pmENE 9.9-----29.94- 66.4- 65.8---
2026-05-09 05:15 pm E 8.9-----29.94- 66.4- 65.8---
2026-05-09 05:00 pmENE 8.9-----29.94+0.00 66.7- 66.2---
2026-05-09 04:45 pmENE 8.9-----29.94- 66.7- 66.2---
2026-05-09 04:30 pm NE 11.1-----29.94- 66.9- 66.4---
2026-05-09 04:15 pmNNE 13.0-----29.94- 67.1- 66.6---
2026-05-09 04:00 pmNNE 14.0-----29.94-0.03 67.3- 66.7---
2026-05-09 03:45 pm NE 15.0-----29.94- 67.3- 66.4---
2026-05-09 03:30 pmNNE 15.9-----29.94- 67.5- 66.4---
2026-05-09 03:15 pmNNE 20.0-----29.94- 68.4- 66.6---
2026-05-09 03:00 pm NE 14.0-----29.94-0.03 71.6- 69.4---
2026-05-09 02:45 pmENE 6.0-----29.91- 73.4- 71.6---
2026-05-09 02:30 pmENE 6.0-----29.94- 73.6- 71.4---
2026-05-09 02:15 pmENE 6.0-----29.94- 73.4- 71.2---
2026-05-09 02:00 pmESE 2.9-----29.94-0.03 73.6- 71.2---
2026-05-09 01:45 pm S 4.1-----29.97- 74.1- 71.1---
2026-05-09 01:30 pmWSW 8.0-----29.97- 75.0- 71.2---
2026-05-09 01:15 pm W 8.9-----29.97- 75.0- 71.1---
2026-05-09 01:00 pm W 9.9-----29.97+0.06 75.0- 70.7---
2026-05-09 12:45 pm W 14.0-----29.97- 75.2- 70.2---
2026-05-09 12:30 pmWSW 12.0-----29.97- 75.4- 71.4---
2026-05-09 12:15 pm W 12.0-----29.97- 76.8- 74.1---
2026-05-09 12:00 pmWSW 8.0-----29.97+0.06 76.5- 73.8---
2026-05-09 11:45 amWSW 6.0-----29.97- 76.3- 73.2---
2026-05-09 11:30 am W 7.0-----29.97- 76.3- 72.9---
2026-05-09 11:15 amWNW 8.0-----29.97- 76.6- 73.2---
2026-05-09 11:00 amWNW 7.0-----29.97+0.06 76.6- 73.2---
2026-05-09 10:45 am NW 6.0-----29.97- 76.8- 73.0---
2026-05-09 10:30 am W 8.9-----29.94- 77.2- 73.0---
2026-05-09 10:15 amWSW 6.0-----29.94- 76.6- 72.3---
2026-05-09 10:00 am SW 5.1-----29.91+0.00 76.6- 72.3---
2026-05-09 09:45 amSSW 6.0-----29.91- 77.0- 72.9---
2026-05-09 09:30 amSSW 6.0-----29.91- 77.0- 72.7---
2026-05-09 09:15 am SW 5.1-----29.94- 76.8- 72.5---
2026-05-09 09:00 am SW 5.1-----29.91+0.03 76.6- 72.3---
2026-05-09 08:45 am SW 5.1-----29.91- 76.6- 72.3---
2026-05-09 08:30 amSSW 5.1-----29.91- 76.3- 72.1---
2026-05-09 08:15 amSSW 4.1-----29.91- 75.6- 72.1---
2026-05-09 08:00 amSSW 1.9-----29.91+0.03 75.2- 72.5---
2026-05-09 07:45 am- 0.0-----29.91- 74.8- 72.1---
2026-05-09 07:30 am- 0.0-----29.91- 74.3- 71.6---
2026-05-09 07:15 am E 1.0-----29.88- 74.8- 71.8---
2026-05-09 07:00 am- 0.0-----29.91+0.03 74.7- 71.6---
2026-05-09 06:45 amESE 1.9-----29.88- 74.7- 71.6---
2026-05-09 06:30 amSSE 2.9-----29.88- 74.8- 71.8---
2026-05-09 06:15 am S 2.9-----29.88- 74.8- 71.4---
2026-05-09 06:00 am S 4.1-----29.88-0.03 74.8- 70.9---
2026-05-09 05:45 amSSE 4.1-----29.88- 74.8- 70.2---
2026-05-09 05:30 amSSE 5.1-----29.88- 74.7- 69.6---
2026-05-09 05:15 amSSE 6.0-----29.88- 74.7- 69.3---
2026-05-09 05:00 amSSE 5.1-----29.88-0.06 74.5- 68.7---
2026-05-09 04:45 am SE 6.0-----29.88- 74.3- 67.8---
2026-05-09 04:30 amSSE 6.0-----29.88- 73.9- 68.2---
2026-05-09 04:15 am SE 6.0-----29.88- 73.8- 68.7---
2026-05-09 04:00 amSSE 6.0-----29.88-0.09 73.6- 68.5---
2026-05-09 03:45 am SE 6.0-----29.91- 73.2- 69.3---
2026-05-09 03:30 am SE 6.0-----29.91- 73.0- 69.6---
2026-05-09 03:15 am SE 5.1-----29.91- 72.7- 69.6---
2026-05-09 03:00 am SE 4.1-----29.91-0.09 71.8- 69.1---